createdAt,value
2022-12-07T00:01:20.681Z,4.30
2022-12-07T00:04:08.300Z,4.30
2022-12-07T00:06:55.144Z,4.30
2022-12-07T00:09:42.782Z,4.30
2022-12-07T00:12:29.468Z,4.20
2022-12-07T00:15:16.220Z,4.70
2022-12-07T00:18:02.919Z,4.30
2022-12-07T00:20:49.718Z,4.30
2022-12-07T00:23:36.526Z,4.30
2022-12-07T00:26:23.171Z,4.60
2022-12-07T00:29:15.676Z,4.40
2022-12-07T00:32:02.438Z,4.20
2022-12-07T00:34:49.131Z,4.30
2022-12-07T00:37:35.824Z,4.30
2022-12-07T00:40:22.513Z,4.30
2022-12-07T00:43:09.353Z,4.30
2022-12-07T00:45:56.121Z,4.20
2022-12-07T00:48:42.923Z,4.30
2022-12-07T00:51:29.674Z,4.20
2022-12-07T00:54:16.520Z,4.20
2022-12-07T00:57:03.235Z,4.20
2022-12-07T00:59:50.098Z,4.20
2022-12-07T01:02:36.809Z,4.20
2022-12-07T01:05:23.575Z,4.30
2022-12-07T01:08:10.347Z,4.20
2022-12-07T01:11:01.106Z,4.10
2022-12-07T01:13:47.853Z,4.10
2022-12-07T01:16:34.676Z,4.10
2022-12-07T01:19:21.418Z,4.60
2022-12-07T01:22:08.091Z,4.10
2022-12-07T01:24:54.794Z,4.10
2022-12-07T01:27:41.494Z,4.10
2022-12-07T01:30:28.236Z,4.70
2022-12-07T01:33:15.168Z,4.10
2022-12-07T01:36:09.820Z,4.10
2022-12-07T01:38:57.984Z,4.00
2022-12-07T01:41:44.765Z,4.10
2022-12-07T01:44:33.027Z,4.10
2022-12-07T01:47:19.693Z,4.10
2022-12-07T01:50:06.670Z,4.10
2022-12-07T01:52:54.707Z,4.00
2022-12-07T01:55:43.065Z,4.50
2022-12-07T01:58:29.980Z,4.30
2022-12-07T02:01:16.750Z,4.00
2022-12-07T02:04:03.765Z,4.40
2022-12-07T02:06:51.220Z,4.00
2022-12-07T02:09:37.869Z,4.50
2022-12-07T02:12:25.620Z,4.00
2022-12-07T02:15:12.573Z,4.30
2022-12-07T02:18:11.998Z,4.00
2022-12-07T02:21:02.261Z,4.00
2022-12-07T02:24:02.027Z,4.00
2022-12-07T02:27:07.190Z,4.00
2022-12-07T02:30:09.215Z,4.00
2022-12-07T02:33:03.432Z,4.00
2022-12-07T02:36:01.951Z,4.00
2022-12-07T02:38:52.238Z,4.00
2022-12-07T02:41:41.551Z,4.00
2022-12-07T02:44:29.096Z,4.30
2022-12-07T02:47:18.664Z,4.00
2022-12-07T02:50:06.332Z,4.40
2022-12-07T02:52:54.650Z,4.00
2022-12-07T02:55:42.477Z,4.30
2022-12-07T02:58:36.642Z,4.00
2022-12-07T03:01:38.668Z,4.00
2022-12-07T03:04:26.660Z,4.10
2022-12-07T03:07:25.126Z,4.10
2022-12-07T03:10:27.655Z,4.10
2022-12-07T03:13:26.478Z,4.10
2022-12-07T03:16:18.708Z,4.10
2022-12-07T03:19:09.431Z,4.70
2022-12-07T03:21:59.623Z,4.20
2022-12-07T03:24:50.415Z,4.10
2022-12-07T03:27:41.644Z,4.00
2022-12-07T03:30:29.791Z,4.50
2022-12-07T03:33:25.677Z,4.00
2022-12-07T03:36:15.528Z,4.00
2022-12-07T03:39:09.697Z,4.20
2022-12-07T03:41:57.718Z,4.00
2022-12-07T03:44:46.642Z,4.10
2022-12-07T03:47:52.228Z,4.00
2022-12-07T03:50:44.615Z,3.90
2022-12-07T03:53:40.677Z,3.90
2022-12-07T03:56:30.631Z,3.90
2022-12-07T03:59:17.908Z,4.00
2022-12-07T04:02:05.597Z,3.80
2022-12-07T04:04:52.356Z,4.30
2022-12-07T04:07:39.125Z,3.80
2022-12-07T04:10:25.888Z,3.90
2022-12-07T04:13:12.641Z,3.80
2022-12-07T04:15:59.412Z,3.80
2022-12-07T04:18:46.253Z,4.30
2022-12-07T04:21:33.022Z,3.80
2022-12-07T04:24:19.804Z,4.00
2022-12-07T04:27:06.509Z,3.70
2022-12-07T04:29:53.237Z,3.70
2022-12-07T04:32:39.993Z,3.80
2022-12-07T04:35:26.756Z,4.20
2022-12-07T04:38:13.467Z,3.90
2022-12-07T04:41:05.829Z,3.80
2022-12-07T04:43:52.514Z,3.80
2022-12-07T04:46:39.277Z,3.80
2022-12-07T04:49:26.236Z,4.00
2022-12-07T04:52:12.934Z,3.70
2022-12-07T04:54:59.685Z,4.00
2022-12-07T04:57:46.395Z,3.70
2022-12-07T05:00:33.172Z,3.90
2022-12-07T05:03:19.951Z,3.70
2022-12-07T05:06:10.399Z,3.70
2022-12-07T05:09:00.082Z,3.70
2022-12-07T05:11:46.900Z,4.10
2022-12-07T05:14:33.726Z,3.60
2022-12-07T05:17:20.440Z,3.70
2022-12-07T05:20:07.572Z,3.70
2022-12-07T05:22:54.307Z,3.60
2022-12-07T05:25:41.044Z,3.60
2022-12-07T05:28:27.754Z,3.90
2022-12-07T05:31:14.532Z,3.50
2022-12-07T05:34:01.239Z,3.80
2022-12-07T05:36:48.038Z,3.50
2022-12-07T05:39:34.707Z,3.80
2022-12-07T05:42:21.875Z,3.40
2022-12-07T05:45:09.344Z,3.50
2022-12-07T05:47:56.026Z,3.50
2022-12-07T05:50:43.048Z,3.70
2022-12-07T05:53:29.803Z,3.60
2022-12-07T05:56:16.861Z,3.40
2022-12-07T05:59:22.054Z,3.80
2022-12-07T06:02:10.597Z,3.30
2022-12-07T06:04:57.348Z,3.80
2022-12-07T06:07:44.196Z,3.20
2022-12-07T06:10:30.905Z,3.50
2022-12-07T06:13:17.647Z,3.10
2022-12-07T06:16:04.603Z,3.10
2022-12-07T06:18:51.380Z,3.00
2022-12-07T06:21:38.093Z,3.00
2022-12-07T06:24:24.945Z,3.20
2022-12-07T06:27:11.785Z,2.80
2022-12-07T06:29:58.750Z,2.80
2022-12-07T06:32:45.670Z,2.70
2022-12-07T06:35:33.527Z,3.10
2022-12-07T06:38:20.313Z,2.60
2022-12-07T06:41:07.660Z,2.60
2022-12-07T06:43:56.385Z,2.70
2022-12-07T06:46:43.329Z,2.40
2022-12-07T06:49:30.069Z,2.90
2022-12-07T06:52:16.721Z,2.30
2022-12-07T06:55:03.523Z,2.30
2022-12-07T06:57:50.194Z,2.30
2022-12-07T07:00:36.977Z,2.70
2022-12-07T07:03:23.803Z,2.60
2022-12-07T07:06:10.569Z,2.20
2022-12-07T07:08:57.275Z,2.20
2022-12-07T07:11:43.987Z,2.10
2022-12-07T07:14:30.717Z,2.10
2022-12-07T07:17:17.457Z,2.10
2022-12-07T07:20:04.683Z,2.00
2022-12-07T07:22:51.729Z,2.00
2022-12-07T07:25:38.604Z,2.00
2022-12-07T07:28:25.353Z,2.00
2022-12-07T07:31:12.033Z,2.10
2022-12-07T07:33:58.848Z,2.30
2022-12-07T07:36:45.500Z,2.10
2022-12-07T07:39:32.349Z,2.50
2022-12-07T07:42:19.052Z,2.00
2022-12-07T07:45:06.017Z,2.00
2022-12-07T07:47:52.708Z,2.10
2022-12-07T07:50:39.451Z,2.40
2022-12-07T07:53:26.137Z,2.10
2022-12-07T07:56:12.826Z,2.10
2022-12-07T07:58:59.457Z,2.20
2022-12-07T08:01:46.226Z,2.20
2022-12-07T08:04:32.982Z,2.30
2022-12-07T08:07:19.786Z,2.30
2022-12-07T08:10:07.286Z,2.30
2022-12-07T08:13:12.381Z,2.30
2022-12-07T08:15:59.637Z,2.30
2022-12-07T08:18:46.405Z,2.40
2022-12-07T08:21:33.145Z,2.40
2022-12-07T08:24:19.857Z,2.80
2022-12-07T08:27:06.586Z,2.60
2022-12-07T08:29:53.328Z,2.70
2022-12-07T08:32:40.329Z,2.80
2022-12-07T08:35:27.389Z,3.40
2022-12-07T08:38:14.111Z,3.00
2022-12-07T08:41:00.868Z,3.10
2022-12-07T08:43:47.528Z,3.60
2022-12-07T08:46:35.328Z,3.20
2022-12-07T08:49:42.698Z,3.70
2022-12-07T08:52:30.949Z,3.30
2022-12-07T08:55:17.659Z,4.00
2022-12-07T08:58:04.593Z,3.40
2022-12-07T09:00:51.562Z,3.50
2022-12-07T09:03:38.411Z,3.90
2022-12-07T09:06:25.423Z,3.60
2022-12-07T09:09:12.681Z,4.40
2022-12-07T09:11:59.449Z,4.00
2022-12-07T09:14:46.182Z,4.40
2022-12-07T09:17:34.135Z,4.30
2022-12-07T09:20:24.726Z,4.50
2022-12-07T09:23:14.407Z,4.60
2022-12-07T09:26:10.549Z,4.90
2022-12-07T09:28:57.710Z,5.20
2022-12-07T09:31:44.449Z,5.40
2022-12-07T09:34:31.914Z,5.60
2022-12-07T09:37:18.764Z,5.90
2022-12-07T09:40:05.916Z,6.30
2022-12-07T09:42:54.615Z,6.80
2022-12-07T09:45:47.146Z,7.00
2022-12-07T09:48:37.714Z,7.40
2022-12-07T09:51:26.003Z,7.90
2022-12-07T09:54:14.144Z,8.20
2022-12-07T09:57:01.142Z,8.30
2022-12-07T09:59:47.852Z,8.50
2022-12-07T10:02:45.884Z,8.70
2022-12-07T10:05:40.773Z,9.20
2022-12-07T10:08:27.549Z,9.70
2022-12-07T10:11:15.865Z,10.30
2022-12-07T10:14:13.488Z,10.90
2022-12-07T10:17:00.275Z,11.90
2022-12-07T10:19:47.014Z,15.30
2022-12-07T10:22:33.761Z,21.30
2022-12-07T10:25:21.509Z,26.60
2022-12-07T10:28:08.225Z,30.10
2022-12-07T10:30:57.990Z,31.80
2022-12-07T10:33:52.668Z,33.10
2022-12-07T10:36:39.503Z,33.70
2022-12-07T10:39:26.270Z,34.10
2022-12-07T10:42:24.186Z,34.30
2022-12-07T10:45:16.480Z,33.60
2022-12-07T10:48:09.867Z,32.80
2022-12-07T10:50:59.590Z,33.50
2022-12-07T10:54:02.088Z,34.50
2022-12-07T10:57:00.818Z,35.70
2022-12-07T10:59:57.041Z,37.00
2022-12-07T11:03:03.993Z,37.60
2022-12-07T11:05:55.952Z,37.70
2022-12-07T11:08:57.133Z,37.60
2022-12-07T11:11:52.172Z,37.90
2022-12-07T11:14:58.471Z,37.60
2022-12-07T11:17:45.181Z,37.90
2022-12-07T11:20:47.913Z,37.40
2022-12-07T11:23:34.605Z,37.30
2022-12-07T11:26:28.448Z,36.20
2022-12-07T11:29:17.866Z,35.90
2022-12-07T11:32:20.228Z,36.80
2022-12-07T11:35:19.275Z,37.70
2022-12-07T11:38:12.600Z,37.40
2022-12-07T11:41:13.882Z,37.30
2022-12-07T11:44:01.103Z,38.30
2022-12-07T11:46:47.930Z,38.60
2022-12-07T11:50:04.077Z,38.50
2022-12-07T11:53:04.020Z,38.30
2022-12-07T11:55:57.458Z,37.80
2022-12-07T11:58:50.372Z,38.10
2022-12-07T12:01:37.175Z,37.50
2022-12-07T12:04:42.620Z,37.30
2022-12-07T12:10:39.116Z,37.00
2022-12-07T12:16:50.119Z,38.20
2022-12-07T12:20:01.469Z,38.50
2022-12-07T12:23:00.879Z,38.40
2022-12-07T12:25:50.341Z,38.20
2022-12-07T12:28:45.321Z,38.00
2022-12-07T12:31:40.650Z,37.70
2022-12-07T12:34:33.235Z,37.20
2022-12-07T12:37:35.075Z,36.10
2022-12-07T12:40:21.914Z,35.00
2022-12-07T12:43:28.595Z,34.00
2022-12-07T12:46:30.609Z,33.20
2022-12-07T12:49:17.330Z,32.30
2022-12-07T12:52:10.074Z,28.70
2022-12-07T12:55:13.464Z,25.50
2022-12-07T12:58:20.146Z,23.60
2022-12-07T13:01:27.556Z,22.50
2022-12-07T13:04:35.473Z,21.30
2022-12-07T13:07:42.510Z,19.90
2022-12-07T13:10:32.249Z,18.20
2022-12-07T13:13:25.465Z,16.30
2022-12-07T13:16:12.300Z,14.60
2022-12-07T13:19:00.640Z,13.30
2022-12-07T13:21:47.288Z,12.10
2022-12-07T13:24:35.484Z,11.30
2022-12-07T13:27:22.809Z,10.60
2022-12-07T13:30:21.440Z,10.10
2022-12-07T13:33:10.066Z,9.60
2022-12-07T13:35:59.500Z,9.30
2022-12-07T13:39:12.738Z,9.10
2022-12-07T13:42:02.459Z,8.90
2022-12-07T13:44:49.114Z,8.80
2022-12-07T13:47:49.429Z,8.60
2022-12-07T13:50:36.211Z,8.50
2022-12-07T13:53:24.450Z,8.40
2022-12-07T13:56:15.053Z,8.30
2022-12-07T13:59:03.488Z,8.20
2022-12-07T14:01:51.603Z,8.10
2022-12-07T14:04:40.541Z,8.00
2022-12-07T14:07:28.785Z,8.00
2022-12-07T14:10:28.551Z,7.90
2022-12-07T14:13:24.296Z,7.80
2022-12-07T14:16:32.488Z,7.70
2022-12-07T14:19:43.463Z,7.70
2022-12-07T14:22:37.448Z,7.70
2022-12-07T14:25:25.529Z,7.50
2022-12-07T14:28:28.447Z,7.50
2022-12-07T14:31:23.762Z,7.40
2022-12-07T14:34:16.448Z,7.40
2022-12-07T14:37:05.157Z,7.30
2022-12-07T14:39:53.428Z,7.30
2022-12-07T14:42:40.589Z,7.30
2022-12-07T14:45:28.503Z,7.40
2022-12-07T14:54:32.374Z,7.40
2022-12-07T14:57:20.454Z,7.30
2022-12-07T15:00:07.514Z,7.20
2022-12-07T15:02:56.466Z,7.00
2022-12-07T15:05:43.186Z,6.80
2022-12-07T15:08:31.426Z,6.60
2022-12-07T15:11:19.028Z,6.50
2022-12-07T15:14:10.433Z,6.30
2022-12-07T15:17:21.959Z,6.20
2022-12-07T15:20:06.401Z,6.20
2022-12-07T15:22:53.078Z,5.80
2022-12-07T15:25:48.438Z,5.80
2022-12-07T15:28:35.454Z,5.70
2022-12-07T15:31:53.911Z,5.50
2022-12-07T15:34:38.038Z,5.70
2022-12-07T15:37:28.442Z,5.30
2022-12-07T15:40:15.403Z,5.20
2022-12-07T15:43:03.500Z,5.10
2022-12-07T15:45:50.827Z,5.10
2022-12-07T15:48:39.420Z,5.00
2022-12-07T15:51:26.203Z,5.00
2022-12-07T15:54:15.379Z,5.00
2022-12-07T15:57:02.098Z,4.90
2022-12-07T15:59:50.448Z,4.80
2022-12-07T16:02:40.052Z,4.70
2022-12-07T16:05:28.437Z,4.60
2022-12-07T16:08:15.278Z,4.60
2022-12-07T16:11:07.429Z,4.60
2022-12-07T16:13:55.862Z,4.70
2022-12-07T16:16:44.468Z,4.50
2022-12-07T16:19:31.592Z,4.50
2022-12-07T16:22:19.566Z,4.40
2022-12-07T16:25:06.635Z,4.40
2022-12-07T16:27:55.389Z,4.40
2022-12-07T16:30:42.108Z,4.30
2022-12-07T16:33:30.416Z,4.70
2022-12-07T16:36:34.060Z,4.20
2022-12-07T16:39:25.364Z,4.40
2022-12-07T16:42:12.045Z,4.10
2022-12-07T16:45:00.932Z,4.10
2022-12-07T16:47:47.892Z,4.10
2022-12-07T16:50:36.400Z,4.10
2022-12-07T16:53:24.344Z,4.50
2022-12-07T16:56:13.412Z,4.00
2022-12-07T16:59:00.128Z,3.90
2022-12-07T17:01:46.858Z,3.70
2022-12-07T17:04:34.098Z,4.20
2022-12-07T17:07:22.400Z,3.50
2022-12-07T17:10:09.415Z,4.00
2022-12-07T17:12:57.403Z,3.40
2022-12-07T17:15:46.956Z,3.90
2022-12-07T17:18:37.420Z,3.50
2022-12-07T17:21:24.362Z,3.50
2022-12-07T17:24:12.010Z,3.50
2022-12-07T17:26:58.732Z,3.40
2022-12-07T17:29:45.433Z,3.90
2022-12-07T17:32:33.369Z,3.20
2022-12-07T17:35:20.111Z,3.60
2022-12-07T17:38:06.788Z,3.00
2022-12-07T17:40:53.530Z,3.00
2022-12-07T17:43:40.206Z,3.00
2022-12-07T17:46:27.445Z,2.90
2022-12-07T17:49:14.644Z,2.80
2022-12-07T17:52:20.093Z,2.70
2022-12-07T17:55:07.130Z,3.20
2022-12-07T17:57:54.049Z,2.60
2022-12-07T18:00:42.387Z,3.00
2022-12-07T18:03:29.263Z,2.60
2022-12-07T18:06:15.981Z,2.50
2022-12-07T18:09:02.774Z,2.50
2022-12-07T18:11:49.605Z,2.40
2022-12-07T18:14:36.432Z,2.80
2022-12-07T18:17:23.125Z,2.20
2022-12-07T18:20:10.066Z,2.60
2022-12-07T18:22:57.281Z,2.00
2022-12-07T18:25:50.691Z,2.10
2022-12-07T18:28:37.399Z,2.20
2022-12-07T18:31:24.335Z,2.20
2022-12-07T18:34:12.302Z,2.30
2022-12-07T18:36:59.017Z,2.30
2022-12-07T18:39:45.751Z,2.70
2022-12-07T18:42:33.617Z,2.40
2022-12-07T18:45:20.494Z,3.00
2022-12-07T18:48:07.924Z,2.20
2022-12-07T18:51:02.028Z,2.20
2022-12-07T18:53:49.423Z,2.30
2022-12-07T18:56:36.250Z,2.40
2022-12-07T18:59:41.867Z,2.40
2022-12-07T19:02:28.631Z,2.40
2022-12-07T19:05:15.505Z,2.40
2022-12-07T19:08:02.552Z,2.40
2022-12-07T19:10:49.284Z,2.30
2022-12-07T19:13:35.977Z,2.90
2022-12-07T19:16:23.606Z,2.20
2022-12-07T19:19:10.484Z,2.10
2022-12-07T19:21:57.255Z,1.90
2022-12-07T19:24:46.569Z,1.80
2022-12-07T19:27:34.494Z,1.70
2022-12-07T19:30:21.206Z,1.70
2022-12-07T19:33:09.323Z,1.70
2022-12-07T19:35:55.961Z,1.60
2022-12-07T19:38:44.353Z,1.60
2022-12-07T19:41:33.978Z,1.60
2022-12-07T19:44:27.313Z,1.50
2022-12-07T19:47:17.437Z,1.40
2022-12-07T19:50:05.322Z,1.40
2022-12-07T19:52:51.973Z,1.40
2022-12-07T19:55:45.407Z,1.40
2022-12-07T19:58:32.128Z,1.30
2022-12-07T20:01:20.365Z,1.30
2022-12-07T20:04:08.364Z,1.20
2022-12-07T20:06:58.401Z,1.20
2022-12-07T20:09:45.091Z,1.60
2022-12-07T20:12:52.300Z,1.40
2022-12-07T20:15:39.002Z,1.40
2022-12-07T20:18:27.334Z,1.30
2022-12-07T20:21:14.332Z,1.20
2022-12-07T20:24:03.334Z,1.20
2022-12-07T20:26:50.862Z,1.20
2022-12-07T20:29:39.341Z,1.10
2022-12-07T20:32:26.055Z,1.10
2022-12-07T20:35:14.337Z,1.70
2022-12-07T20:38:00.990Z,1.00
2022-12-07T20:40:50.297Z,1.00
2022-12-07T20:43:36.962Z,1.70
2022-12-07T20:46:25.331Z,1.10
2022-12-07T20:49:13.720Z,1.10
2022-12-07T20:52:02.315Z,1.20
2022-12-07T20:54:48.957Z,1.20
2022-12-07T20:57:37.291Z,1.20
2022-12-07T21:00:23.956Z,1.60
2022-12-07T21:03:12.376Z,1.20
2022-12-07T21:06:01.444Z,1.10
2022-12-07T21:08:52.455Z,1.30
2022-12-07T21:11:39.551Z,0.80
2022-12-07T21:14:29.318Z,0.70
2022-12-07T21:17:15.979Z,0.80
2022-12-07T21:20:02.885Z,0.90
2022-12-07T21:22:49.568Z,1.00
2022-12-07T21:25:36.272Z,1.10
2022-12-07T21:28:22.959Z,1.10
2022-12-07T21:31:13.778Z,1.10
2022-12-07T21:34:02.306Z,1.60
2022-12-07T21:36:49.088Z,1.10
2022-12-07T21:39:35.788Z,1.50
2022-12-07T21:42:22.687Z,0.90
2022-12-07T21:45:09.750Z,1.50
2022-12-07T21:47:56.445Z,0.70
2022-12-07T21:50:43.282Z,0.60
2022-12-07T21:53:29.995Z,0.60
2022-12-07T21:56:18.537Z,0.60
2022-12-07T21:59:07.828Z,0.50
2022-12-07T22:01:54.657Z,0.50
2022-12-07T22:04:41.496Z,0.50
2022-12-07T22:07:28.221Z,0.40
2022-12-07T22:10:28.023Z,0.40
2022-12-07T22:13:14.760Z,0.40
2022-12-07T22:16:03.371Z,0.40
2022-12-07T22:18:50.131Z,0.50
2022-12-07T22:21:36.989Z,0.40
2022-12-07T22:24:23.761Z,0.40
2022-12-07T22:27:10.653Z,0.40
2022-12-07T22:29:57.377Z,0.40
2022-12-07T22:32:48.601Z,0.30
2022-12-07T22:35:35.873Z,0.30
2022-12-07T22:38:22.683Z,0.30
2022-12-07T22:41:09.402Z,0.30
2022-12-07T22:43:56.170Z,0.20
2022-12-07T22:46:42.995Z,0.10
2022-12-07T22:49:29.833Z,0.60
2022-12-07T22:52:16.566Z,0.10
2022-12-07T22:55:03.895Z,0.00
2022-12-07T22:57:50.930Z,0.00
2022-12-07T23:00:37.705Z,0.50
2022-12-07T23:03:24.425Z,0.50
2022-12-07T23:06:15.639Z,0.00
2022-12-07T23:09:04.357Z,-0.10
2022-12-07T23:12:10.941Z,-0.10
2022-12-07T23:14:57.704Z,-0.10
2022-12-07T23:17:44.623Z,-0.10
2022-12-07T23:20:31.297Z,-0.10
2022-12-07T23:23:18.123Z,-0.10
2022-12-07T23:26:05.437Z,-0.10
2022-12-07T23:28:52.806Z,-0.10
2022-12-07T23:31:39.685Z,-0.10
2022-12-07T23:34:26.553Z,-0.10
2022-12-07T23:37:13.244Z,-0.10
2022-12-07T23:39:59.986Z,-0.20
2022-12-07T23:42:46.735Z,-0.20
2022-12-07T23:45:33.509Z,-0.20
2022-12-07T23:48:20.141Z,-0.20
2022-12-07T23:51:07.476Z,-0.20
2022-12-07T23:53:54.417Z,-0.30
2022-12-07T23:56:41.338Z,-0.30
2022-12-07T23:59:28.024Z,-0.30
